Lučenec, Slovensko

12:24 AM CEST dna 03 August, 2015 (GMT +0200)
Tatry | | Change Station
CLOSE
Current Station
Airport
Location: Poprad,
Nad. výška:: 2277 ft
Najbližšie meteo stanice

Elev 2277 ft 49.07 °N, 20.25 °E | Updated 24 minutes ago

Clear
Jasno
55 °F
Feels Like 55 °F
N
2
Vietor meniaci sa Vietor from meniaci sa

Dnes
High -- | Low -- °F
--% Chance of Precip.
Yesterday
High -- | Low -- °F
Precip. -- in
5:18 AM 8:15 PM
Ubúdajúci mesiac, 3. fáza, 91% visible
Tlak 30.18 in
Viditeľnosť -9999.0 mile
Oblačnost
Rosný bod 52 °F
Vlhkosť 88%
Rainfall 0.00 in
Výška snehu Not available.
UV Not available.
Pollen Not available.
Air Quality Not available.
Flu Activity Not available.
METAR LZTT 022200Z VRB02KT CAVOK 13/11 Q1022

More Conditions Fewer Conditions

Tlak 30.18 in
Viditeľnosť -9999.0 mile
Oblačnost
Rosný bod 52 °F
Vlhkosť 88%
Rainfall 0.00 in
Výška snehu Not available.
UV Not available.
Pollen Not available.
Air Quality Not available.
Flu Activity Not available.
METAR LZTT 022200Z VRB02KT CAVOK 13/11 Q1022

More Conditions Fewer Conditions

10-Day Weather Forecast

×

Almanac

Astronómia

Aug. 03, 2015 Východ Západ
Aktuálny čas
Civil Twilight
Nautical Twilight
Astronomical Twilight
Mesiac
Length Of Visible Light
Dĺžka dňa
Tomorrow will be .
, % of the Moon is Illuminated

Today's Extremes

Country Highs Country Lows

Community

WunderPhotos

Upload Photos

1,843,400 photos uploaded!

WunderBlogs® & News

Nearby

Air Quality

  Air Quality AQ Index Pollutant
Not available.

Výska snehu

Station Depth Nad. výška:

Aktivita zemetrasenia

Mesto Distance Mag. Time & Date
Minimum magnitude displayed is 2.5.

Coastal Water Temperatures

Miesto Teplota

Stations

Najbližšie meteo stanice

Station Location Temp Pocitová teplota Rosný bod Vlhkosť Vietor Precip. Elev Cas aktualizacie Type